Time;durP1;ratioP1;P1;durP2;ratioP2;P2;SDS_P1;SDS_P2;PMS_P1;PMS_P2;Temp;Humidity;BMP_temperature;BMP_pressure;BME280_temperature;BME280_humidity;BME280_pressure;Samples;Min_cycle;Max_cycle;Signal;HPM_P1;HPM_P2
2021/03/12 00:02:20;;;;;;;0.60;0.40;;;22.50;43.90;;;;;;5023728;28;20042;-62
2021/03/12 00:04:45;;;;;;;0.55;0.50;;;22.50;43.90;;;;;;5026068;28;20078;-63
2021/03/12 00:07:11;;;;;;;1.02;0.50;;;22.50;43.90;;;;;;5020534;28;20025;-64
2021/03/12 00:09:37;;;;;;;0.95;0.50;;;22.50;43.90;;;;;;5027360;28;20025;-64
2021/03/12 00:12:03;;;;;;;1.10;0.60;;;22.40;43.90;;;;;;5028949;28;20082;-63
2021/03/12 00:14:29;;;;;;;0.80;0.50;;;22.50;43.90;;;;;;5028138;28;20025;-64
2021/03/12 00:16:55;;;;;;;0.70;0.40;;;22.40;43.90;;;;;;5030249;28;20108;-64
2021/03/12 00:19:26;;;;;;;0.50;0.40;;;22.40;43.90;;;;;;5029668;28;20025;-63
2021/03/12 00:21:51;;;;;;;0.75;0.50;;;22.40;43.90;;;;;;5030791;28;20847;-62
2021/03/12 00:24:17;;;;;;;0.95;0.50;;;22.40;43.90;;;;;;5029002;28;20067;-65
2021/03/12 00:26:43;;;;;;;1.77;0.57;;;22.40;43.90;;;;;;5030880;28;20025;-64
2021/03/12 00:29:08;;;;;;;0.95;0.55;;;22.40;43.90;;;;;;5029184;28;20025;-63
2021/03/12 00:31:34;;;;;;;0.60;0.40;;;22.40;43.90;;;;;;5028393;28;20025;-64
2021/03/12 00:33:59;;;;;;;0.65;0.50;;;22.40;43.90;;;;;;5028456;28;20030;-65
2021/03/12 00:36:25;;;;;;;0.70;0.55;;;22.40;43.90;;;;;;5029266;28;20105;-63
2021/03/12 00:38:51;;;;;;;1.80;0.45;;;22.40;44.00;;;;;;5029065;28;20193;-64
2021/03/12 00:41:16;;;;;;;0.88;0.70;;;22.30;43.90;;;;;;5028914;28;20040;-65
2021/03/12 00:43:42;;;;;;;0.70;0.60;;;22.30;43.90;;;;;;5029066;28;20030;-63
2021/03/12 00:46:09;;;;;;;0.40;0.40;;;22.30;43.90;;;;;;5028096;28;20032;-63
2021/03/12 00:48:35;;;;;;;0.70;0.50;;;22.30;43.90;;;;;;5028196;28;20030;-63
2021/03/12 00:51:02;;;;;;;0.52;0.50;;;22.30;43.90;;;;;;5029880;28;20091;-64
2021/03/12 00:53:28;;;;;;;0.60;0.50;;;22.30;44.00;;;;;;5029383;28;20029;-63
2021/03/12 00:55:54;;;;;;;0.40;0.40;;;22.30;44.00;;;;;;5029455;28;20796;-63
2021/03/12 00:58:22;;;;;;;0.50;0.50;;;22.30;44.00;;;;;;5029482;28;20025;-62
2021/03/12 01:00:49;;;;;;;0.85;0.50;;;22.30;44.00;;;;;;5023172;28;20396;-63
2021/03/12 01:03:14;;;;;;;0.80;0.50;;;22.30;44.00;;;;;;5024526;28;20108;-64
2021/03/12 01:05:41;;;;;;;0.47;0.40;;;22.30;44.00;;;;;;5027170;28;20025;-62
2021/03/12 01:08:07;;;;;;;0.75;0.50;;;22.20;44.00;;;;;;5031258;28;20515;-65
2021/03/12 01:10:34;;;;;;;0.50;0.50;;;22.20;44.00;;;;;;5029519;28;20056;-62
2021/03/12 01:12:59;;;;;;;0.43;0.43;;;22.20;44.00;;;;;;5028706;28;20085;-63
2021/03/12 01:15:26;;;;;;;0.40;0.40;;;22.20;44.00;;;;;;5027366;28;20420;-62
2021/03/12 01:17:54;;;;;;;0.75;0.43;;;22.20;44.00;;;;;;5028447;28;20551;-63
2021/03/12 01:20:26;;;;;;;1.17;0.50;;;22.20;44.00;;;;;;5025745;28;20361;-64
2021/03/12 01:22:58;;;;;;;0.77;0.40;;;22.20;44.00;;;;;;5026478;28;20108;-64
2021/03/12 01:25:31;;;;;;;0.90;0.40;;;22.20;44.00;;;;;;5029296;28;20033;-63
2021/03/12 01:27:57;;;;;;;0.93;0.50;;;22.20;44.10;;;;;;5026904;28;20025;-62
2021/03/12 01:30:32;;;;;;;0.40;0.40;;;22.20;44.10;;;;;;5021867;28;20053;-63
2021/03/12 01:32:57;;;;;;;0.88;0.50;;;22.20;44.10;;;;;;5029284;28;20025;-62
2021/03/12 01:35:23;;;;;;;0.40;0.40;;;22.20;44.10;;;;;;5027975;28;20079;-64
2021/03/12 01:37:49;;;;;;;0.55;0.40;;;22.10;44.00;;;;;;5028784;28;20100;-63
2021/03/12 01:40:18;;;;;;;0.65;0.50;;;22.10;44.00;;;;;;5026048;28;20030;-63
2021/03/12 01:42:44;;;;;;;0.50;0.50;;;22.10;44.00;;;;;;5020723;28;20040;-63
2021/03/12 01:45:20;;;;;;;0.40;0.40;;;22.10;44.00;;;;;;5025430;28;20091;-64
2021/03/12 01:47:46;;;;;;;0.47;0.47;;;22.10;44.10;;;;;;5026859;28;20299;-62
2021/03/12 01:50:12;;;;;;;0.60;0.40;;;22.10;44.10;;;;;;5043563;28;20036;-65
2021/03/12 01:52:37;;;;;;;0.60;0.50;;;22.10;44.10;;;;;;5023846;28;20030;-63
2021/03/12 01:55:05;;;;;;;0.40;0.40;;;22.10;44.10;;;;;;5023030;28;20329;-63
2021/03/12 01:57:31;;;;;;;0.52;0.50;;;22.10;44.10;;;;;;5026425;28;20033;-63
2021/03/12 01:59:57;;;;;;;0.45;0.40;;;22.10;44.10;;;;;;5027355;28;20037;-63
2021/03/12 02:02:23;;;;;;;1.00;0.50;;;22.10;44.10;;;;;;5021418;28;20499;-63
2021/03/12 02:04:48;;;;;;;0.45;0.43;;;22.10;44.10;;;;;;5026386;28;20827;-64
2021/03/12 02:07:14;;;;;;;0.40;0.40;;;22.10;44.10;;;;;;5028706;28;20081;-62
2021/03/12 02:09:40;;;;;;;0.30;0.30;;;22.00;44.10;;;;;;5026891;28;20030;-63
2021/03/12 02:12:34;;;;;;;0.63;0.40;;;22.00;44.10;;;;;;5028672;28;20043;-62
2021/03/12 02:15:06;;;;;;;0.50;0.30;;;22.00;44.10;;;;;;5020802;28;20089;-63
2021/03/12 02:17:46;;;;;;;2.03;0.43;;;22.00;44.10;;;;;;5029721;28;20060;-63
2021/03/12 02:20:32;;;;;;;0.60;0.47;;;22.00;44.10;;;;;;5018983;28;20029;-63
2021/03/12 02:23:30;;;;;;;0.63;0.40;;;22.00;44.10;;;;;;5018304;28;20032;-63
2021/03/12 02:26:18;;;;;;;1.40;0.40;;;22.00;44.10;;;;;;5017789;28;20137;-64
2021/03/12 02:28:47;;;;;;;0.40;0.40;;;22.00;44.10;;;;;;5016522;28;20045;-62
2021/03/12 02:31:13;;;;;;;;;;;22.00;44.10;;;;;;5025406;28;20033;-63
2021/03/12 02:33:39;;;;;;;0.80;0.40;;;22.00;44.10;;;;;;5024250;28;19975;-64
2021/03/12 02:36:05;;;;;;;0.68;0.40;;;22.00;44.10;;;;;;5025901;28;20543;-63
2021/03/12 02:38:33;;;;;;;0.40;0.40;;;22.00;44.10;;;;;;5026295;28;20112;-62
2021/03/12 02:41:00;;;;;;;0.60;0.50;;;22.00;44.10;;;;;;5026987;28;20095;-65
2021/03/12 02:43:27;;;;;;;0.40;0.35;;;22.00;44.10;;;;;;5027092;28;20034;-64
2021/03/12 02:45:55;;;;;;;0.45;0.40;;;22.00;44.20;;;;;;5026309;28;20032;-64
2021/03/12 02:48:30;;;;;;;0.60;0.40;;;21.90;44.10;;;;;;5027218;28;20200;-63
2021/03/12 02:50:57;;;;;;;0.30;0.30;;;21.90;44.20;;;;;;5027660;28;20030;-63
2021/03/12 02:53:23;;;;;;;0.35;0.32;;;21.90;44.70;;;;;;5011752;28;20029;-62
2021/03/12 02:55:49;;;;;;;0.40;0.30;;;21.90;44.10;;;;;;5017211;28;20417;-63
2021/03/12 02:58:16;;;;;;;0.40;0.40;;;21.90;44.20;;;;;;5027140;28;20033;-61
2021/03/12 03:00:42;;;;;;;0.63;0.43;;;21.90;44.20;;;;;;5023579;28;20438;-62
2021/03/12 03:03:09;;;;;;;0.38;0.30;;;21.80;44.10;;;;;;5027215;28;20037;-63
2021/03/12 03:05:36;;;;;;;0.30;0.30;;;21.90;44.20;;;;;;5021732;28;20030;-64
2021/03/12 03:08:04;;;;;;;0.38;0.38;;;21.80;44.10;;;;;;5028123;28;20021;-62
2021/03/12 03:10:30;;;;;;;0.32;0.30;;;21.90;44.20;;;;;;5026812;28;20365;-62
2021/03/12 03:12:56;;;;;;;0.30;0.30;;;21.90;44.20;;;;;;5027235;28;20029;-62
2021/03/12 03:15:23;;;;;;;0.43;0.40;;;21.90;44.20;;;;;;5014583;28;20034;-64
2021/03/12 03:17:51;;;;;;;0.30;0.30;;;21.80;44.20;;;;;;5022360;28;20030;-62
2021/03/12 03:20:17;;;;;;;0.30;0.30;;;21.80;44.20;;;;;;5026449;28;20040;-64
2021/03/12 03:22:46;;;;;;;0.30;0.30;;;21.80;44.20;;;;;;5027546;28;20097;-62
2021/03/12 03:25:12;;;;;;;0.57;0.30;;;21.80;44.20;;;;;;5025062;28;20392;-64
2021/03/12 03:27:39;;;;;;;0.52;0.40;;;21.80;44.20;;;;;;5026703;28;20049;-63
2021/03/12 03:30:10;;;;;;;0.47;0.40;;;21.80;44.20;;;;;;5025077;28;20573;-63
2021/03/12 03:32:36;;;;;;;0.30;0.30;;;21.80;44.20;;;;;;5026940;28;20372;-62
2021/03/12 03:35:04;;;;;;;0.50;0.35;;;21.80;44.20;;;;;;5026646;28;20025;-63
2021/03/12 03:37:30;;;;;;;0.47;0.30;;;21.80;44.20;;;;;;5027995;28;20075;-63
2021/03/12 03:39:56;;;;;;;0.30;0.30;;;21.80;44.20;;;;;;5026326;28;20479;-62
2021/03/12 03:42:26;;;;;;;0.32;0.30;;;21.70;44.20;;;;;;5024150;28;20251;-64
2021/03/12 03:44:54;;;;;;;0.40;0.40;;;21.80;44.20;;;;;;5028927;28;20086;-64
2021/03/12 03:47:21;;;;;;;0.43;0.30;;;21.80;44.20;;;;;;5029867;28;20017;-63
2021/03/12 03:49:48;;;;;;;0.30;0.30;;;21.70;44.20;;;;;;5022154;28;20169;-62
2021/03/12 03:52:16;;;;;;;0.45;0.40;;;21.70;44.20;;;;;;5030117;28;20028;-63
2021/03/12 03:54:42;;;;;;;0.57;0.40;;;21.70;44.20;;;;;;5030198;28;20045;-64
2021/03/12 03:57:09;;;;;;;0.28;0.28;;;21.70;44.20;;;;;;5031190;28;20163;-63
2021/03/12 03:59:39;;;;;;;0.47;0.32;;;21.70;44.20;;;;;;5040021;28;20037;-64
2021/03/12 04:02:08;;;;;;;0.57;0.30;;;21.70;44.20;;;;;;5017507;28;20664;-63
2021/03/12 04:04:35;;;;;;;0.47;0.40;;;21.70;44.20;;;;;;5028690;28;20033;-62
2021/03/12 04:07:00;;;;;;;0.35;0.35;;;21.70;44.20;;;;;;5030172;28;20109;-63
2021/03/12 04:09:27;;;;;;;0.35;0.30;;;21.70;44.30;;;;;;5045267;28;20112;-63
2021/03/12 04:11:53;;;;;;;0.35;0.35;;;21.70;44.20;;;;;;5027300;28;20030;-63
2021/03/12 04:14:20;;;;;;;0.50;0.30;;;21.70;44.30;;;;;;5023219;28;20022;-64
2021/03/12 04:16:46;;;;;;;0.60;0.40;;;21.70;44.30;;;;;;5040340;28;20041;-65
2021/03/12 04:19:12;;;;;;;0.30;0.30;;;21.70;44.30;;;;;;5029149;28;20097;-63
2021/03/12 04:21:39;;;;;;;0.25;0.20;;;21.70;44.20;;;;;;5030889;28;20028;-62
2021/03/12 04:24:05;;;;;;;0.45;0.32;;;21.70;44.30;;;;;;5043365;28;20476;-63
2021/03/12 04:26:32;;;;;;;0.65;0.40;;;21.70;44.30;;;;;;5030276;28;20034;-62
2021/03/12 04:28:58;;;;;;;0.40;0.40;;;21.70;44.30;;;;;;5030486;28;20084;-63
2021/03/12 04:31:24;;;;;;;0.40;0.40;;;21.60;44.30;;;;;;5027476;28;20123;-66
2021/03/12 04:33:51;;;;;;;0.30;0.30;;;21.70;44.30;;;;;;5014766;28;20034;-62
2021/03/12 04:36:17;;;;;;;0.52;0.30;;;21.60;44.30;;;;;;5029204;28;20034;-62
2021/03/12 04:38:44;;;;;;;0.25;0.25;;;21.60;44.30;;;;;;5024889;28;20037;-63
2021/03/12 04:41:10;;;;;;;0.32;0.30;;;21.60;44.30;;;;;;5028778;28;20112;-62
2021/03/12 04:43:38;;;;;;;0.52;0.40;;;21.60;44.30;;;;;;5029616;28;20407;-65
2021/03/12 04:46:04;;;;;;;0.30;0.30;;;21.60;44.30;;;;;;5027630;28;20041;-64
2021/03/12 04:48:31;;;;;;;0.13;0.13;;;21.60;44.30;;;;;;5027240;28;20021;-64
2021/03/12 04:50:58;;;;;;;0.40;0.40;;;21.60;44.30;;;;;;5027770;28;20033;-63
2021/03/12 04:53:27;;;;;;;0.35;0.22;;;21.60;44.30;;;;;;5028744;28;20079;-63
2021/03/12 04:55:53;;;;;;;0.47;0.30;;;21.60;44.30;;;;;;5027550;28;20030;-62
2021/03/12 04:58:19;;;;;;;0.57;0.30;;;21.60;44.30;;;;;;5028452;28;20029;-62
2021/03/12 05:00:45;;;;;;;0.30;0.30;;;21.60;44.30;;;;;;5025585;28;20118;-66
2021/03/12 05:03:10;;;;;;;0.38;0.30;;;21.60;44.30;;;;;;5028969;28;20032;-62
2021/03/12 05:05:37;;;;;;;0.50;0.30;;;21.60;44.30;;;;;;5028664;28;20025;-63
2021/03/12 05:08:03;;;;;;;0.30;0.30;;;21.60;44.30;;;;;;5030067;28;20018;-63
2021/03/12 05:10:29;;;;;;;0.30;0.30;;;21.60;44.30;;;;;;5028673;28;20095;-64
2021/03/12 05:12:56;;;;;;;0.40;0.28;;;21.60;44.30;;;;;;5025764;28;20030;-62
2021/03/12 05:15:22;;;;;;;0.30;0.30;;;21.60;44.30;;;;;;5027294;28;20045;-64
2021/03/12 05:17:48;;;;;;;0.25;0.25;;;21.60;44.20;;;;;;5028042;28;20068;-63
2021/03/12 05:20:14;;;;;;;0.30;0.30;;;21.60;44.30;;;;;;5027554;28;20428;-63
2021/03/12 05:22:39;;;;;;;0.35;0.30;;;21.60;44.30;;;;;;5029126;28;20053;-62
2021/03/12 05:25:05;;;;;;;0.30;0.30;;;21.60;44.30;;;;;;5026463;28;20123;-64
2021/03/12 05:27:31;;;;;;;0.30;0.30;;;21.60;44.30;;;;;;5020885;28;20033;-63
2021/03/12 05:29:57;;;;;;;0.38;0.30;;;21.60;44.30;;;;;;5027302;28;20029;-65
2021/03/12 05:32:22;;;;;;;0.57;0.35;;;21.50;44.20;;;;;;5016819;28;20525;-64
2021/03/12 05:34:48;;;;;;;0.40;0.40;;;21.50;44.20;;;;;;5026534;28;20029;-63
2021/03/12 05:37:13;;;;;;;0.73;0.40;;;21.50;44.20;;;;;;5026194;28;20136;-64
2021/03/12 05:39:39;;;;;;;0.30;0.30;;;21.50;44.20;;;;;;5028331;28;20037;-63
2021/03/12 05:42:07;;;;;;;0.60;0.40;;;21.50;44.20;;;;;;5042796;28;20037;-66
2021/03/12 05:44:33;;;;;;;0.30;0.30;;;21.50;44.30;;;;;;5026817;28;20052;-62
2021/03/12 05:46:59;;;;;;;0.20;0.20;;;21.50;44.20;;;;;;5024957;28;20481;-63
2021/03/12 05:49:26;;;;;;;0.95;0.40;;;21.50;44.20;;;;;;5028444;28;20025;-63
2021/03/12 05:51:52;;;;;;;0.43;0.32;;;21.50;44.20;;;;;;5021000;28;20376;-62
2021/03/12 05:54:18;;;;;;;0.32;0.30;;;21.50;44.20;;;;;;5037593;28;20037;-63
2021/03/12 05:56:43;;;;;;;0.30;0.30;;;21.50;44.20;;;;;;5027867;28;20619;-64
2021/03/12 05:59:09;;;;;;;0.25;0.25;;;21.50;44.20;;;;;;5028003;28;20033;-62
2021/03/12 06:01:35;;;;;;;0.90;0.40;;;21.50;44.20;;;;;;5025076;28;20041;-63
2021/03/12 06:04:00;;;;;;;0.32;0.30;;;21.50;44.30;;;;;;5027465;28;20468;-62
2021/03/12 06:06:26;;;;;;;0.40;0.30;;;21.50;44.20;;;;;;5027665;28;20021;-64
2021/03/12 06:08:53;;;;;;;0.35;0.35;;;21.50;44.30;;;;;;5024988;28;20044;-63
2021/03/12 06:11:18;;;;;;;0.32;0.30;;;21.50;44.30;;;;;;5026577;28;20055;-63
2021/03/12 06:13:51;;;;;;;1.08;0.50;;;21.50;44.30;;;;;;5018817;28;20492;-63
2021/03/12 06:16:28;;;;;;;0.38;0.38;;;21.50;44.30;;;;;;5025587;28;20057;-63
2021/03/12 06:19:17;;;;;;;0.80;0.40;;;21.50;44.30;;;;;;5019387;28;20376;-63
2021/03/12 06:21:48;;;;;;;0.47;0.40;;;21.50;44.80;;;;;;5027356;28;20086;-63
2021/03/12 06:24:30;;;;;;;0.40;0.30;;;21.40;44.30;;;;;;5021867;28;20092;-63
2021/03/12 06:26:57;;;;;;;0.50;0.30;;;21.40;44.30;;;;;;5025261;28;20083;-66
2021/03/12 06:29:37;;;;;;;0.50;0.40;;;21.40;44.30;;;;;;5024439;28;20033;-63
2021/03/12 06:32:04;;;;;;;0.30;0.30;;;21.40;44.30;;;;;;5020742;28;20798;-62
2021/03/12 06:34:30;;;;;;;1.13;0.50;;;21.40;44.30;;;;;;5026825;28;20061;-64
2021/03/12 06:36:57;;;;;;;0.90;0.50;;;21.40;44.30;;;;;;5041227;28;20128;-62
2021/03/12 06:39:33;;;;;;;1.85;0.50;;;21.40;44.30;;;;;;5024586;28;20021;-62
2021/03/12 06:41:59;;;;;;;0.57;0.40;;;21.40;44.30;;;;;;5024439;28;20030;-62
2021/03/12 06:44:32;;;;;;;0.47;0.38;;;21.40;44.30;;;;;;5024519;28;20029;-63
2021/03/12 06:46:58;;;;;;;0.20;0.20;;;21.40;44.30;;;;;;5023001;28;20021;-63
2021/03/12 06:49:25;;;;;;;0.30;0.30;;;21.40;44.30;;;;;;5024739;28;20040;-72
2021/03/12 06:51:55;;;;;;;1.38;0.50;;;21.40;44.60;;;;;;5021738;28;20029;-70
2021/03/12 06:54:21;;;;;;;1.70;0.43;;;21.50;45.30;;;;;;5029298;28;20029;-71
2021/03/12 06:56:47;;;;;;;1.65;0.57;;;21.70;45.30;;;;;;5026831;28;20040;-72
2021/03/12 06:59:13;;;;;;;0.50;0.40;;;21.80;45.10;;;;;;5027909;28;20030;-72
2021/03/12 07:01:39;;;;;;;1.45;0.60;;;21.90;44.90;;;;;;5021032;28;20067;-72
2021/03/12 07:04:14;;;;;;;0.50;0.50;;;22.00;44.60;;;;;;5028579;28;20521;-72
2021/03/12 07:06:45;;;;;;;0.52;0.43;;;22.20;44.40;;;;;;5026846;28;20060;-69
2021/03/12 07:09:11;;;;;;;1.13;0.50;;;22.30;44.20;;;;;;5025347;28;20026;-68
2021/03/12 07:11:36;;;;;;;2.65;0.60;;;22.40;44.00;;;;;;5037418;28;20030;-67
2021/03/12 07:14:02;;;;;;;1.23;0.50;;;22.50;43.80;;;;;;5025152;28;20060;-71
2021/03/12 07:16:28;;;;;;;1.27;0.60;;;22.60;43.60;;;;;;5027415;28;20053;-70
2021/03/12 07:18:55;;;;;;;0.68;0.40;;;22.80;43.40;;;;;;5032218;28;20117;-71
2021/03/12 07:21:26;;;;;;;0.63;0.50;;;22.90;43.10;;;;;;5028485;28;20021;-70
2021/03/12 07:24:02;;;;;;;1.77;0.60;;;23.00;43.10;;;;;;5044804;28;20487;-69
2021/03/12 07:26:45;;;;;;;1.05;0.50;;;23.10;42.80;;;;;;5025620;28;20032;-69
2021/03/12 07:29:12;;;;;;;0.60;0.40;;;23.10;42.70;;;;;;5029787;28;20056;-68
2021/03/12 07:31:39;;;;;;;0.70;0.40;;;23.20;42.50;;;;;;5042591;28;20654;-68
2021/03/12 07:34:33;;;;;;;1.45;0.50;;;23.40;42.40;;;;;;5028545;28;20041;-67
2021/03/12 07:37:01;;;;;;;0.40;0.40;;;23.40;42.10;;;;;;5028990;28;20064;-71
2021/03/12 07:39:43;;;;;;;0.98;0.50;;;23.40;42.20;;;;;;5028811;28;20118;-70
2021/03/12 07:42:11;;;;;;;0.50;0.30;;;23.30;42.20;;;;;;5024837;28;20041;-71
2021/03/12 07:44:38;;;;;;;0.30;0.30;;;23.20;42.30;;;;;;5027653;28;20059;-72
2021/03/12 07:47:04;;;;;;;1.60;0.50;;;23.20;42.50;;;;;;5025898;28;20032;-70
2021/03/12 07:49:32;;;;;;;1.17;0.60;;;23.10;42.50;;;;;;5025293;28;20108;-69
2021/03/12 07:52:00;;;;;;;0.82;0.40;;;23.10;42.50;;;;;;5028106;28;20025;-68
2021/03/12 07:54:37;;;;;;;1.73;0.55;;;23.20;42.90;;;;;;5029953;28;20025;-68
2021/03/12 07:57:07;;;;;;;0.73;0.43;;;23.30;42.60;;;;;;5034614;28;20555;-74
2021/03/12 08:00:00;;;;;;;0.93;0.50;;;23.30;42.50;;;;;;5020537;28;20030;-72
2021/03/12 08:02:53;;;;;;;0.57;0.40;;;23.30;42.50;;;;;;5021576;28;20124;-72
2021/03/12 08:05:32;;;;;;;0.65;0.40;;;23.30;42.50;;;;;;5026030;28;20471;-60
2021/03/12 08:07:58;;;;;;;1.08;0.60;;;23.30;42.60;;;;;;5025300;28;20040;-61
2021/03/12 08:10:24;;;;;;;0.40;0.40;;;23.30;42.60;;;;;;5027355;28;20035;-69
2021/03/12 08:12:50;;;;;;;0.30;0.30;;;23.30;42.40;;;;;;5030246;28;20033;-63
2021/03/12 08:15:20;;;;;;;0.73;0.40;;;23.30;42.40;;;;;;5027037;28;20060;-71
2021/03/12 08:18:09;;;;;;;0.38;0.35;;;23.40;42.40;;;;;;5028331;28;20029;-67
2021/03/12 08:20:40;;;;;;;0.40;0.35;;;23.30;43.00;;;;;;5023385;28;20049;-69
2021/03/12 08:23:07;;;;;;;0.88;0.40;;;23.30;43.30;;;;;;5036919;28;20371;-69
2021/03/12 08:25:35;;;;;;;0.80;0.50;;;23.40;43.80;;;;;;5027759;28;20477;-69
2021/03/12 08:28:25;;;;;;;0.55;0.50;;;23.60;43.80;;;;;;5025853;28;20044;-66
2021/03/12 08:30:52;;;;;;;0.20;0.20;;;23.70;44.20;;;;;;5013898;28;20048;-71
2021/03/12 08:33:21;;;;;;;1.17;0.50;;;23.70;43.90;;;;;;5026249;28;20068;-73
2021/03/12 08:35:47;;;;;;;0.80;0.50;;;23.80;44.10;;;;;;5044244;28;20075;-66
2021/03/12 08:38:22;;;;;;;0.30;0.30;;;23.80;44.50;;;;;;5024111;28;20034;-65
2021/03/12 08:41:07;;;;;;;0.40;0.40;;;23.80;44.60;;;;;;5026888;28;20041;-71
2021/03/12 08:43:35;;;;;;;0.30;0.30;;;23.90;44.90;;;;;;5027714;28;20055;-67
2021/03/12 08:46:11;;;;;;;0.57;0.40;;;23.90;44.90;;;;;;5026338;28;20026;-67
2021/03/12 08:48:37;;;;;;;0.50;0.30;;;23.90;45.00;;;;;;5035305;28;20037;-66
2021/03/12 08:51:04;;;;;;;0.55;0.47;;;24.00;45.20;;;;;;5029458;28;20511;-67
2021/03/12 08:53:38;;;;;;;0.60;0.40;;;24.00;45.30;;;;;;5039983;28;20037;-64
2021/03/12 08:56:08;;;;;;;0.40;0.40;;;24.10;45.40;;;;;;5027662;28;20025;-66
2021/03/12 08:58:36;;;;;;;0.88;0.30;;;24.10;45.40;;;;;;5027903;28;20029;-65
2021/03/12 09:01:16;;;;;;;0.50;0.43;;;24.10;45.40;;;;;;5025407;28;20102;-66
2021/03/12 09:03:47;;;;;;;1.52;0.47;;;24.10;45.40;;;;;;5027661;28;20104;-68
2021/03/12 09:06:16;;;;;;;1.67;0.70;;;24.20;39.60;;;;;;5026890;28;20022;-66
2021/03/12 09:08:43;;;;;;;2.33;0.80;;;24.00;35.30;;;;;;5027525;28;20025;-67
2021/03/12 09:11:14;;;;;;;2.13;0.80;;;23.80;33.40;;;;;;5026226;28;20018;-66
2021/03/12 09:13:44;;;;;;;1.42;0.70;;;23.70;31.80;;;;;;5042613;28;20037;-71
2021/03/12 09:16:10;;;;;;;2.47;0.93;;;23.50;31.00;;;;;;5023152;28;20029;-68
2021/03/12 09:18:37;;;;;;;2.10;0.60;;;23.30;31.20;;;;;;5028921;28;20051;-72
2021/03/12 09:21:06;;;;;;;2.28;0.80;;;23.20;32.00;;;;;;5026365;28;20041;-69
2021/03/12 09:23:39;;;;;;;2.70;0.90;;;23.20;31.60;;;;;;5025294;28;20087;-67
2021/03/12 09:26:11;;;;;;;2.53;0.80;;;23.10;31.20;;;;;;5027289;28;20099;-73
2021/03/12 09:28:37;;;;;;;1.52;0.80;;;23.00;30.80;;;;;;5027610;28;20032;-73
2021/03/12 09:31:05;;;;;;;2.20;0.80;;;23.00;31.10;;;;;;5025553;28;20029;-68
2021/03/12 09:33:45;;;;;;;2.10;0.90;;;22.90;31.00;;;;;;5027818;28;20331;-66
2021/03/12 09:36:32;;;;;;;1.17;0.70;;;22.90;30.50;;;;;;5027029;28;20688;-71
2021/03/12 09:39:16;;;;;;;2.67;0.90;;;22.80;29.70;;;;;;5026181;28;20022;-68
2021/03/12 09:41:59;;;;;;;1.52;0.70;;;22.70;29.50;;;;;;5025075;28;20049;-71
2021/03/12 09:44:26;;;;;;;1.60;0.70;;;22.60;29.50;;;;;;5025944;28;20037;-70
2021/03/12 09:46:57;;;;;;;2.13;0.85;;;22.60;29.40;;;;;;5027317;28;20033;-69
2021/03/12 09:49:24;;;;;;;2.03;0.63;;;22.50;28.80;;;;;;5026433;28;20017;-69
2021/03/12 09:51:53;;;;;;;1.63;0.60;;;22.40;29.20;;;;;;5024079;28;20083;-68
2021/03/12 09:54:20;;;;;;;1.80;0.80;;;22.40;29.00;;;;;;5023762;28;20033;-69
2021/03/12 09:56:51;;;;;;;1.35;0.50;;;22.30;30.00;;;;;;5018422;28;20132;-70
2021/03/12 09:59:19;;;;;;;1.17;0.52;;;22.40;31.20;;;;;;5015462;28;20395;-67
2021/03/12 10:01:45;;;;;;;0.90;0.40;;;22.50;32.20;;;;;;5012993;28;20053;-69
2021/03/12 10:04:36;;;;;;;1.27;0.60;;;22.60;33.00;;;;;;5024137;28;20052;-70
2021/03/12 10:07:05;;;;;;;0.40;0.40;;;22.70;33.80;;;;;;5017026;28;20084;-67
2021/03/12 10:09:35;;;;;;;1.30;0.50;;;22.80;34.50;;;;;;5027369;28;20041;-69
2021/03/12 10:12:03;;;;;;;1.23;0.43;;;22.90;35.60;;;;;;5030599;28;20040;-71
2021/03/12 10:14:39;;;;;;;0.70;0.40;;;23.10;36.10;;;;;;5026378;28;20447;-71
2021/03/12 10:17:16;;;;;;;0.60;0.40;;;23.10;36.40;;;;;;5022078;28;20531;-67
2021/03/12 10:19:48;;;;;;;1.17;0.70;;;23.10;36.90;;;;;;5023991;28;20039;-70
2021/03/12 10:22:17;;;;;;;1.23;0.30;;;23.20;37.40;;;;;;5028331;28;20072;-66
2021/03/12 10:25:15;;;;;;;0.95;0.50;;;23.20;38.20;;;;;;5026854;28;20378;-69
2021/03/12 10:27:53;;;;;;;1.42;0.70;;;23.30;38.60;;;;;;5014769;28;20487;-70
2021/03/12 10:30:22;;;;;;;1.23;0.40;;;23.40;39.00;;;;;;5040700;28;20037;-70
2021/03/12 10:32:50;;;;;;;0.80;0.40;;;23.40;39.20;;;;;;5026414;28;20363;-70
2021/03/12 10:35:31;;;;;;;0.30;0.30;;;23.50;39.50;;;;;;5027919;28;20060;-69
2021/03/12 10:37:59;;;;;;;0.70;0.52;;;23.50;39.70;;;;;;5027002;28;20128;-69
2021/03/12 10:40:27;;;;;;;0.47;0.47;;;23.60;39.80;;;;;;5025484;28;20033;-67
2021/03/12 10:42:53;;;;;;;0.63;0.45;;;23.60;40.40;;;;;;5025889;28;20044;-67
2021/03/12 10:45:26;;;;;;;0.85;0.50;;;23.70;41.00;;;;;;5025054;28;20037;-68
2021/03/12 10:48:06;;;;;;;0.63;0.40;;;23.70;40.30;;;;;;5025750;28;20033;-68
2021/03/12 10:50:34;;;;;;;0.50;0.40;;;23.70;40.20;;;;;;5026652;28;20010;-68
2021/03/12 10:53:12;;;;;;;1.45;0.50;;;23.70;40.20;;;;;;5025534;28;20410;-68
2021/03/12 10:55:44;;;;;;;0.80;0.40;;;23.60;40.30;;;;;;5027534;28;20037;-67
2021/03/12 10:58:26;;;;;;;0.82;0.50;;;23.60;40.30;;;;;;5030784;28;20041;-72
2021/03/12 11:01:22;;;;;;;1.15;0.50;;;23.60;40.40;;;;;;5030384;28;20580;-69
2021/03/12 11:03:49;;;;;;;0.93;0.50;;;23.70;40.40;;;;;;5030859;28;20025;-68
2021/03/12 11:06:17;;;;;;;0.85;0.50;;;23.70;40.40;;;;;;5025254;28;20029;-69
2021/03/12 11:08:43;;;;;;;0.77;0.50;;;23.70;40.40;;;;;;5029261;28;20174;-71
2021/03/12 11:11:11;;;;;;;0.55;0.45;;;23.70;40.50;;;;;;5028438;28;20019;-71
2021/03/12 11:13:38;;;;;;;0.80;0.40;;;23.70;40.60;;;;;;5025468;28;20083;-69
2021/03/12 11:16:04;;;;;;;0.25;0.25;;;23.70;40.60;;;;;;5028443;28;20036;-67
2021/03/12 11:18:31;;;;;;;0.40;0.30;;;23.70;40.50;;;;;;5031477;28;20033;-70
2021/03/12 11:21:01;;;;;;;0.43;0.40;;;23.70;40.50;;;;;;5033766;28;20250;-70
2021/03/12 11:23:27;;;;;;;1.70;0.40;;;23.70;40.50;;;;;;5029992;28;20029;-73
2021/03/12 11:25:56;;;;;;;1.27;0.40;;;23.70;40.70;;;;;;5033224;28;20021;-68
2021/03/12 11:28:22;;;;;;;;;;;23.70;40.80;;;;;;5030103;28;20032;-71
2021/03/12 11:30:48;;;;;;;0.40;0.40;;;23.70;40.80;;;;;;5029874;28;19913;-71
2021/03/12 11:33:14;;;;;;;0.98;0.50;;;23.70;40.80;;;;;;5043435;28;20022;-70
2021/03/12 11:35:40;;;;;;;0.47;0.47;;;23.70;40.80;;;;;;5026420;28;20850;-68
2021/03/12 11:38:06;;;;;;;0.30;0.30;;;23.70;40.80;;;;;;5027259;28;20500;-72
2021/03/12 11:40:34;;;;;;;0.52;0.40;;;23.70;40.80;;;;;;5025926;28;20476;-67
2021/03/12 11:42:59;;;;;;;0.73;0.40;;;23.70;40.80;;;;;;5026314;28;20029;-69
2021/03/12 11:45:25;;;;;;;0.47;0.40;;;23.70;40.90;;;;;;5026708;28;20045;-71
2021/03/12 11:47:53;;;;;;;0.60;0.40;;;23.70;40.90;;;;;;5028417;28;20025;-72
2021/03/12 11:50:19;;;;;;;0.52;0.40;;;23.80;41.00;;;;;;5027512;28;20563;-68
2021/03/12 11:52:46;;;;;;;1.00;0.50;;;23.80;41.00;;;;;;5026742;28;20967;-70
2021/03/12 11:55:12;;;;;;;0.82;0.40;;;23.80;40.90;;;;;;5026446;28;20453;-70
2021/03/12 11:57:39;;;;;;;0.40;0.40;;;23.80;41.00;;;;;;5026765;28;20036;-67
2021/03/12 12:00:07;;;;;;;0.60;0.50;;;23.80;41.00;;;;;;5024513;28;20037;-69
2021/03/12 12:02:33;;;;;;;1.38;0.40;;;23.80;41.00;;;;;;5019391;28;20045;-67
2021/03/12 12:04:59;;;;;;;0.70;0.40;;;23.80;41.00;;;;;;5029286;28;20095;-69
2021/03/12 12:07:24;;;;;;;0.70;0.45;;;23.80;41.00;;;;;;5026884;28;20044;-73
2021/03/12 12:09:50;;;;;;;0.30;0.30;;;23.80;41.00;;;;;;5041536;28;20041;-70
2021/03/12 12:12:15;;;;;;;0.50;0.40;;;23.80;41.00;;;;;;5026725;28;20045;-71
2021/03/12 12:14:41;;;;;;;1.15;0.60;;;23.90;41.10;;;;;;5017722;28;20037;-71
2021/03/12 12:17:08;;;;;;;0.68;0.40;;;23.90;41.20;;;;;;5029947;28;20063;-70
2021/03/12 12:19:34;;;;;;;1.90;0.45;;;23.90;41.20;;;;;;5018507;28;20052;-70
2021/03/12 12:22:00;;;;;;;0.40;0.38;;;23.90;41.10;;;;;;5029205;28;20140;-68
2021/03/12 12:24:26;;;;;;;0.73;0.40;;;23.90;41.10;;;;;;5027110;28;20025;-67
2021/03/12 12:26:52;;;;;;;0.70;0.47;;;23.90;41.00;;;;;;5026660;28;20022;-71
2021/03/12 12:29:18;;;;;;;0.32;0.30;;;23.90;41.00;;;;;;5025994;28;20056;-69
2021/03/12 12:31:44;;;;;;;1.13;0.40;;;23.90;41.00;;;;;;5027557;28;20035;-68
2021/03/12 12:34:10;;;;;;;0.63;0.30;;;23.90;40.90;;;;;;5028050;28;20083;-67
2021/03/12 12:36:36;;;;;;;0.80;0.50;;;23.90;41.00;;;;;;5028718;28;20029;-70
2021/03/12 12:39:05;;;;;;;0.43;0.40;;;23.90;41.10;;;;;;5031211;28;20040;-71
2021/03/12 12:41:31;;;;;;;0.40;0.30;;;23.90;41.10;;;;;;5029401;28;20420;-71
2021/03/12 12:43:57;;;;;;;0.98;0.50;;;23.90;41.20;;;;;;5028372;28;20034;-71
2021/03/12 12:46:22;;;;;;;1.05;0.60;;;23.90;41.20;;;;;;5029601;28;20021;-66
2021/03/12 12:48:51;;;;;;;0.57;0.40;;;23.90;41.20;;;;;;5029380;28;20036;-68
2021/03/12 12:51:17;;;;;;;0.88;0.50;;;23.90;41.20;;;;;;5029217;28;20017;-70
2021/03/12 12:53:43;;;;;;;1.02;0.40;;;23.90;41.10;;;;;;5038953;28;20114;-69
2021/03/12 12:56:08;;;;;;;0.57;0.40;;;23.90;41.00;;;;;;5032518;28;20029;-70
2021/03/12 12:58:35;;;;;;;0.50;0.40;;;23.90;41.00;;;;;;5030363;28;20022;-68